Time;durP1;ratioP1;P1;durP2;ratioP2;P2;SDS_P1;SDS_P2;PMS_P1;PMS_P2;Temp;Humidity;BMP_temperature;BMP_pressure;BME280_temperature;BME280_humidity;BME280_pressure;Samples;Min_cycle;Max_cycle;Signal;HPM_P1;HPM_P2
2022/04/15 00:00:27;;;;;;;13.40;10.40;;;;;;100478.89;;;;107127;1276;64883;-27
2022/04/15 00:03:05;;;;;;;15.50;12.50;;;;;;100486.20;;;;107161;1275;64889;-26
2022/04/15 00:05:45;;;;;;;12.00;10.70;;;;;;100485.95;;;;107140;1274;66194;-31
2022/04/15 00:08:15;;;;;;;15.00;11.50;;;;;;100488.65;;;;107139;1277;64863;-30
2022/04/15 00:10:45;;;;;;;13.10;11.60;;;;;;100488.02;;;;107143;1275;64760;-27
2022/04/15 00:13:19;;;;;;;14.50;11.50;;;;;;100496.91;;;;107141;1275;64892;-27
2022/04/15 00:15:51;;;;;;;13.60;11.10;;;;;;100498.46;;;;107149;1275;64778;-30
2022/04/15 00:18:21;;;;;;;13.90;11.80;;;;;;100506.42;;;;107169;1274;66177;-30
2022/04/15 00:20:48;;;;;;;15.20;13.10;;;;;;100507.89;;;;107037;1276;64956;-26
2022/04/15 00:23:21;;;;;;;14.10;11.90;;;;;;100503.73;;;;107065;1275;64861;-31
2022/04/15 00:25:49;;;;;;;13.50;12.00;;;;;;100502.71;;;;107038;1277;64900;-26
2022/04/15 00:28:20;;;;;;;12.60;11.10;;;;;;100500.26;;;;107187;1275;64600;-26
2022/04/15 00:30:47;;;;;;;12.50;10.70;;;;;;100502.48;;;;107180;1274;66125;-33
2022/04/15 00:33:17;;;;;;;15.70;12.60;;;;;;100498.99;;;;107124;1275;64872;-26
2022/04/15 00:35:45;;;;;;;14.60;12.40;;;;;;100506.48;;;;107045;1276;64946;-30
2022/04/15 00:38:16;;;;;;;15.50;13.00;;;;;;100505.23;;;;107077;1277;64757;-30
2022/04/15 00:40:43;;;;;;;13.10;11.60;;;;;;100514.39;;;;107068;1275;64736;-26
2022/04/15 00:43:10;;;;;;;15.70;12.90;;;;;;100514.65;;;;107155;1277;65443;-26
2022/04/15 00:45:38;;;;;;;12.90;11.30;;;;;;100515.39;;;;107045;1277;64750;-26
2022/04/15 00:48:09;;;;;;;14.00;11.50;;;;;;100511.29;;;;107074;1276;64757;-28
2022/04/15 00:50:36;;;;;;;15.80;12.80;;;;;;100510.52;;;;107028;1277;64938;-32
2022/04/15 00:53:11;;;;;;;14.50;12.30;;;;;;100508.92;;;;107184;1275;64748;-31
2022/04/15 00:55:40;;;;;;;13.60;11.80;;;;;;100509.14;;;;107171;1274;67316;-27
2022/04/15 00:58:12;;;;;;;14.70;12.40;;;;;;100513.45;;;;107163;1277;64859;-26
2022/04/15 01:00:39;;;;;;;14.20;11.60;;;;;;100514.40;;;;107059;1276;64853;-26
2022/04/15 01:03:07;;;;;;;13.30;11.60;;;;;;100510.46;;;;107136;1277;64770;-26
2022/04/15 01:05:35;;;;;;;14.30;11.50;;;;;;100507.08;;;;107209;1275;64753;-31
2022/04/15 01:08:08;;;;;;;13.60;11.80;;;;;;100506.36;;;;107132;1277;66482;-31
2022/04/15 01:10:36;;;;;;;;;;;;;;100504.44;;;;107097;1277;64737;-30
2022/04/15 01:13:07;;;;;;;14.20;11.80;;;;;;100504.84;;;;107120;1274;64851;-30
2022/04/15 01:15:34;;;;;;;13.80;11.50;;;;;;100515.09;;;;107124;1275;64847;-27
2022/04/15 01:18:05;;;;;;;13.70;11.90;;;;;;100523.10;;;;107055;1276;64728;-27
2022/04/15 01:20:33;;;;;;;13.40;11.40;;;;;;100520.00;;;;107181;1274;64771;-32
2022/04/15 01:23:08;;;;;;;14.00;11.60;;;;;;100517.98;;;;107108;1276;64903;-31
2022/04/15 01:25:35;;;;;;;13.80;11.50;;;;;;100517.09;;;;107155;1277;64713;-30
2022/04/15 01:28:06;;;;;;;13.60;11.80;;;;;;100517.77;;;;107145;1274;64867;-31
2022/04/15 01:30:33;;;;;;;14.10;11.70;;;;;;100508.53;;;;107158;1277;65054;-27
2022/04/15 01:33:04;;;;;;;14.40;11.80;;;;;;100507.79;;;;107163;1275;66472;-27
2022/04/15 01:35:33;;;;;;;13.80;11.50;;;;;;100509.11;;;;107163;1275;64773;-32
2022/04/15 01:38:07;;;;;;;13.10;11.60;;;;;;100504.91;;;;107027;1276;64836;-30
2022/04/15 01:40:35;;;;;;;14.60;12.30;;;;;;100502.98;;;;107121;1277;64825;-30
2022/04/15 01:43:06;;;;;;;15.20;12.10;;;;;;100506.03;;;;107090;1276;64855;-30
2022/04/15 01:45:34;;;;;;;13.00;11.50;;;;;;100502.25;;;;107167;1275;66245;-27
2022/04/15 01:48:04;;;;;;;13.80;11.30;;;;;;100503.52;;;;107131;1275;64841;-26
2022/04/15 01:50:31;;;;;;;13.20;11.80;;;;;;100499.12;;;;107132;1274;64820;-29
2022/04/15 01:53:01;;;;;;;12.90;10.80;;;;;;100501.29;;;;107109;1276;64773;-27
2022/04/15 01:55:28;;;;;;;13.00;11.50;;;;;;100506.10;;;;107175;1275;64865;-30
2022/04/15 01:57:59;;;;;;;12.50;11.00;;;;;;100506.40;;;;107147;1274;66448;-31
2022/04/15 02:00:26;;;;;;;13.20;11.20;;;;;;100506.79;;;;107128;1275;64761;-27
2022/04/15 02:02:53;;;;;;;12.70;11.10;;;;;;100504.73;;;;107124;1274;64709;-27
2022/04/15 02:05:21;;;;;;;13.40;11.50;;;;;;100504.04;;;;107131;1275;64893;-30
2022/04/15 02:07:48;;;;;;;13.50;10.80;;;;;;100505.05;;;;107139;1275;66257;-30
2022/04/15 02:10:18;;;;;;;12.60;11.10;;;;;;100508.21;;;;107089;1276;67380;-27
2022/04/15 02:12:48;;;;;;;12.90;11.00;;;;;;100505.73;;;;107132;1275;64770;-27
2022/04/15 02:15:18;;;;;;;14.60;11.00;;;;;;100502.96;;;;107137;1277;64843;-31
2022/04/15 02:17:45;;;;;;;13.10;11.00;;;;;;100504.38;;;;107136;1276;64872;-31
2022/04/15 02:20:12;;;;;;;12.90;10.40;;;;;;100505.57;;;;107173;1275;64761;-26
2022/04/15 02:22:39;;;;;;;11.50;10.30;;;;;;100503.52;;;;107115;1276;66402;-27
2022/04/15 02:25:10;;;;;;;11.80;10.20;;;;;;100502.52;;;;107153;1274;64880;-30
2022/04/15 02:27:37;;;;;;;12.20;10.70;;;;;;100501.45;;;;107133;1275;64763;-30
2022/04/15 02:30:05;;;;;;;13.30;11.30;;;;;;100504.16;;;;107150;1274;64871;-30
2022/04/15 02:32:32;;;;;;;12.20;10.90;;;;;;100508.19;;;;107170;1277;64773;-31
2022/04/15 02:35:03;;;;;;;12.40;10.50;;;;;;100512.23;;;;107137;1275;66499;-27
2022/04/15 02:37:32;;;;;;;11.60;10.40;;;;;;100517.22;;;;107192;1275;64769;-27
2022/04/15 02:40:04;;;;;;;12.70;10.90;;;;;;100524.83;;;;107051;1275;64774;-31
2022/04/15 02:42:31;;;;;;;13.20;11.20;;;;;;100527.40;;;;107166;1275;65216;-31
2022/04/15 02:45:04;;;;;;;13.80;11.50;;;;;;100530.42;;;;107156;1275;64834;-30
2022/04/15 02:47:31;;;;;;;13.00;11.40;;;;;;100531.75;;;;107141;1274;66458;-30
2022/04/15 02:50:02;;;;;;;12.20;10.40;;;;;;100530.59;;;;107163;1277;64843;-27
2022/04/15 02:52:29;;;;;;;11.80;10.60;;;;;;100529.59;;;;107158;1274;64744;-27
2022/04/15 02:54:59;;;;;;;13.60;10.90;;;;;;100529.33;;;;107107;1276;64781;-26
2022/04/15 02:57:26;;;;;;;11.10;9.90;;;;;;100527.94;;;;107161;1275;64757;-27
2022/04/15 02:59:56;;;;;;;13.20;11.00;;;;;;100513.77;;;;107175;1274;66149;-26
2022/04/15 03:02:23;;;;;;;11.50;10.30;;;;;;100511.41;;;;107126;1274;64764;-26
2022/04/15 03:04:54;;;;;;;12.00;10.50;;;;;;100512.64;;;;107164;1274;64744;-30
2022/04/15 03:07:21;;;;;;;12.80;10.10;;;;;;100513.80;;;;107148;1275;65120;-30
2022/04/15 03:09:51;;;;;;;12.50;10.60;;;;;;100512.09;;;;107171;1274;64703;-26
2022/04/15 03:12:19;;;;;;;12.00;10.70;;;;;;100518.30;;;;107152;1275;64938;-26
2022/04/15 03:14:53;;;;;;;11.20;9.90;;;;;;100521.90;;;;107128;1277;64979;-27
2022/04/15 03:17:23;;;;;;;11.80;10.10;;;;;;100520.66;;;;107145;1274;64764;-26
2022/04/15 03:19:53;;;;;;;11.50;10.30;;;;;;100516.11;;;;107156;1274;64958;-26
2022/04/15 03:22:22;;;;;;;12.00;10.80;;;;;;100520.56;;;;107162;1274;64904;-26
2022/04/15 03:24:52;;;;;;;12.50;11.20;;;;;;100527.50;;;;107156;1276;66319;-26
2022/04/15 03:27:20;;;;;;;12.30;11.00;;;;;;100537.45;;;;107132;1274;64725;-26
2022/04/15 03:29:51;;;;;;;12.80;11.40;;;;;;100544.73;;;;107060;1276;64846;-26
2022/04/15 03:32:18;;;;;;;13.20;11.80;;;;;;100553.06;;;;107106;1276;65027;-26
2022/04/15 03:34:52;;;;;;;11.90;10.60;;;;;;100556.86;;;;107092;1274;64889;-30
2022/04/15 03:37:22;;;;;;;11.40;10.20;;;;;;100555.86;;;;107163;1274;66438;-30
2022/04/15 03:39:53;;;;;;;11.00;9.80;;;;;;100544.61;;;;107138;1277;64760;-30
2022/04/15 03:42:20;;;;;;;11.00;9.80;;;;;;100536.11;;;;107144;1277;64958;-30
2022/04/15 03:44:48;;;;;;;10.80;9.50;;;;;;100535.86;;;;107133;1275;65534;-27
2022/04/15 03:47:16;;;;;;;12.00;10.30;;;;;;100538.16;;;;107158;1274;64855;-26
2022/04/15 03:49:45;;;;;;;10.80;9.70;;;;;;100534.56;;;;107190;1277;65428;-31
2022/04/15 03:52:16;;;;;;;11.10;9.60;;;;;;100532.98;;;;107060;1277;64932;-30
2022/04/15 03:54:43;;;;;;;11.20;10.00;;;;;;100533.90;;;;107053;1277;64853;-30
2022/04/15 03:57:10;;;;;;;11.20;9.90;;;;;;100534.31;;;;107111;1277;64752;-31
2022/04/15 03:59:37;;;;;;;10.80;9.70;;;;;;100534.35;;;;107164;1275;64868;-31
2022/04/15 04:02:07;;;;;;;10.90;9.70;;;;;;100527.31;;;;107162;1275;65244;-31
2022/04/15 04:04:34;;;;;;;10.70;9.60;;;;;;100527.22;;;;107154;1277;65032;-27
2022/04/15 04:07:04;;;;;;;10.10;9.00;;;;;;100525.83;;;;107125;1275;66550;-27
2022/04/15 04:09:32;;;;;;;11.10;9.70;;;;;;100525.04;;;;107072;1276;64902;-30
2022/04/15 04:11:59;;;;;;;11.10;9.50;;;;;;100530.57;;;;107150;1274;64772;-30
2022/04/15 04:14:30;;;;;;;10.90;9.70;;;;;;100535.00;;;;104851;1274;3084315;-26
2022/04/15 04:16:57;;;;;;;11.10;9.70;;;;;;100540.11;;;;107019;1277;64956;-26
2022/04/15 04:19:24;;;;;;;11.90;9.80;;;;;;100542.26;;;;107104;1275;64969;-31
2022/04/15 04:21:51;;;;;;;10.10;9.00;;;;;;100547.70;;;;107150;1277;64984;-31
2022/04/15 04:24:22;;;;;;;11.10;9.30;;;;;;100548.55;;;;107180;1274;65443;-31
2022/04/15 04:26:49;;;;;;;10.40;9.20;;;;;;100546.52;;;;107158;1277;66557;-31
2022/04/15 04:29:16;;;;;;;10.30;9.00;;;;;;100548.01;;;;107147;1275;64874;-27
2022/04/15 04:31:43;;;;;;;9.50;8.50;;;;;;100553.44;;;;107111;1276;64726;-27
2022/04/15 04:34:14;;;;;;;10.40;8.70;;;;;;100556.11;;;;107107;1277;64863;-26
2022/04/15 04:36:41;;;;;;;9.80;8.80;;;;;;100555.67;;;;107155;1277;64751;-26
2022/04/15 04:39:10;;;;;;;9.80;8.70;;;;;;100556.08;;;;107150;1277;66474;-26
2022/04/15 04:41:39;;;;;;;10.10;9.00;;;;;;100554.81;;;;107145;1277;64748;-26
2022/04/15 04:44:09;;;;;;;10.00;8.80;;;;;;100556.59;;;;106991;1280;64932;-27
2022/04/15 04:46:37;;;;;;;10.10;9.10;;;;;;100561.04;;;;107135;1274;64810;-26
2022/04/15 04:49:07;;;;;;;12.20;10.00;;;;;;100573.80;;;;107153;1275;65164;-31
2022/04/15 04:51:34;;;;;;;10.10;8.30;;;;;;100576.48;;;;107077;1275;66571;-32
2022/04/15 04:54:04;;;;;;;10.50;9.20;;;;;;100575.80;;;;107148;1277;64779;-27
2022/04/15 04:56:32;;;;;;;10.20;9.20;;;;;;100575.77;;;;107144;1277;64769;-26
2022/04/15 04:58:59;;;;;;;10.60;9.30;;;;;;100576.73;;;;107137;1277;65023;-30
2022/04/15 05:01:29;;;;;;;10.70;9.50;;;;;;100581.72;;;;107073;1277;64915;-30
2022/04/15 05:04:00;;;;;;;10.80;9.60;;;;;;100579.79;;;;107074;1275;66190;-30
2022/04/15 05:06:30;;;;;;;9.80;8.30;;;;;;100583.23;;;;107153;1274;64894;-30
2022/04/15 05:09:00;;;;;;;12.30;10.60;;;;;;100576.81;;;;106978;1277;64959;-26
2022/04/15 05:11:31;;;;;;;9.50;8.50;;;;;;100578.67;;;;107129;1276;65229;-26
2022/04/15 05:13:58;;;;;;;11.00;9.70;;;;;;100578.18;;;;107173;1274;64600;-26
2022/04/15 05:16:25;;;;;;;9.60;8.60;;;;;;100574.64;;;;107144;1274;65827;-26
2022/04/15 05:18:55;;;;;;;9.20;8.30;;;;;;100575.15;;;;106996;1277;64799;-27
2022/04/15 05:21:22;;;;;;;10.60;8.80;;;;;;100576.02;;;;107133;1274;64761;-27
2022/04/15 05:23:50;;;;;;;10.70;9.60;;;;;;100584.30;;;;107103;1277;64794;-30
2022/04/15 05:26:20;;;;;;;11.70;9.20;;;;;;100588.95;;;;107149;1274;64731;-32
2022/04/15 05:28:47;;;;;;;10.50;9.40;;;;;;100591.23;;;;107081;1275;67459;-26
2022/04/15 05:31:14;;;;;;;12.10;10.80;;;;;;100589.98;;;;107129;1275;64778;-25
2022/04/15 05:33:41;;;;;;;10.30;9.20;;;;;;100592.05;;;;107174;1275;64824;-30
2022/04/15 05:36:09;;;;;;;10.30;9.10;;;;;;100596.68;;;;107116;1274;65406;-30
2022/04/15 05:38:36;;;;;;;13.50;10.80;;;;;;100602.46;;;;107198;1274;64756;-27
2022/04/15 05:41:03;;;;;;;11.10;9.10;;;;;;100603.95;;;;107143;1275;67375;-26
2022/04/15 05:43:31;;;;;;;11.10;9.20;;;;;;100603.20;;;;106997;1278;64875;-27
2022/04/15 05:46:01;;;;;;;11.00;9.50;;;;;;100607.32;;;;107082;1277;65317;-28
2022/04/15 05:48:31;;;;;;;11.10;10.00;;;;;;100609.66;;;;107133;1275;64757;-27
2022/04/15 05:51:02;;;;;;;11.00;9.60;;;;;;100610.90;;;;107168;1277;64883;-31
2022/04/15 05:53:30;;;;;;;12.10;9.50;;;;;;100611.23;;;;107158;1274;66106;-26
2022/04/15 05:56:00;;;;;;;11.60;9.80;;;;;;100611.84;;;;107147;1276;64894;-30
2022/04/15 05:58:30;;;;;;;10.30;9.30;;;;;;100610.01;;;;107128;1274;64750;-28
2022/04/15 06:01:02;;;;;;;11.40;9.20;;;;;;100609.73;;;;107131;1275;64590;-30
2022/04/15 06:03:32;;;;;;;10.60;9.50;;;;;;100609.35;;;;107124;1277;64980;-27
2022/04/15 06:06:03;;;;;;;10.70;9.30;;;;;;100611.47;;;;107091;1275;66198;-30
2022/04/15 06:08:33;;;;;;;10.00;9.00;;;;;;100613.97;;;;107122;1275;64798;-30
2022/04/15 06:11:00;;;;;;;11.20;9.50;;;;;;100614.77;;;;107161;1275;64833;-29
2022/04/15 06:13:31;;;;;;;9.90;8.70;;;;;;100616.52;;;;107157;1280;65102;-29
2022/04/15 06:15:59;;;;;;;11.40;9.10;;;;;;100616.14;;;;107178;1277;65159;-30
2022/04/15 06:18:34;;;;;;;11.10;8.80;;;;;;100610.48;;;;107155;1274;64766;-31
2022/04/15 06:21:04;;;;;;;10.50;8.70;;;;;;100615.64;;;;107122;1275;64758;-30
2022/04/15 06:23:32;;;;;;;11.10;9.00;;;;;;100622.89;;;;107155;1277;64735;-27
2022/04/15 06:25:59;;;;;;;11.50;9.90;;;;;;100626.03;;;;107127;1275;64775;-33
2022/04/15 06:28:26;;;;;;;10.50;9.00;;;;;;100626.11;;;;107174;1277;64754;-26
2022/04/15 06:30:58;;;;;;;10.70;8.90;;;;;;100630.77;;;;107147;1275;64893;-26
2022/04/15 06:33:25;;;;;;;12.30;9.00;;;;;;100633.34;;;;107148;1275;64724;-26
2022/04/15 06:36:00;;;;;;;10.40;8.10;;;;;;100629.95;;;;107125;1274;64891;-28
2022/04/15 06:38:30;;;;;;;10.10;8.60;;;;;;100635.59;;;;107167;1274;64888;-26
2022/04/15 06:40:57;;;;;;;10.30;8.30;;;;;;100637.69;;;;107069;1275;64843;-30
2022/04/15 06:43:25;;;;;;;10.20;8.10;;;;;;100641.39;;;;107145;1277;66162;-39
2022/04/15 06:45:52;;;;;;;9.10;7.70;;;;;;100644.52;;;;107142;1277;64744;-30
2022/04/15 06:48:22;;;;;;;9.60;8.40;;;;;;100645.66;;;;107149;1275;64891;-29
2022/04/15 06:50:49;;;;;;;9.00;7.90;;;;;;100645.92;;;;107096;1275;63600;-30
2022/04/15 06:53:16;;;;;;;8.90;7.20;;;;;;100649.85;;;;107162;1275;64872;-30
2022/04/15 06:55:43;;;;;;;10.60;8.10;;;;;;100653.48;;;;107154;1274;66087;-30
2022/04/15 06:58:14;;;;;;;9.40;7.40;;;;;;100652.58;;;;107148;1275;64862;-30
2022/04/15 07:00:41;;;;;;;10.10;8.50;;;;;;100653.55;;;;107151;1275;64850;-27
2022/04/15 07:03:09;;;;;;;9.70;7.90;;;;;;100655.50;;;;107112;1277;65003;-25
2022/04/15 07:05:36;;;;;;;9.20;7.40;;;;;;100660.30;;;;107163;1274;64728;-31
2022/04/15 07:08:05;;;;;;;8.70;7.40;;;;;;100660.11;;;;107132;1274;64915;-30
2022/04/15 07:10:32;;;;;;;8.50;7.40;;;;;;100663.94;;;;107211;1278;64762;-26
2022/04/15 07:12:59;;;;;;;9.70;7.40;;;;;;100663.13;;;;107136;1274;64755;-26
2022/04/15 07:15:30;;;;;;;8.00;6.70;;;;;;100664.19;;;;107128;1275;64875;-30
2022/04/15 07:17:59;;;;;;;10.00;7.70;;;;;;100663.15;;;;107172;1275;64821;-31
2022/04/15 07:20:29;;;;;;;8.70;6.80;;;;;;100661.74;;;;107172;1275;66149;-25
2022/04/15 07:22:58;;;;;;;8.40;7.20;;;;;;100660.14;;;;107071;1276;64627;-26
2022/04/15 07:25:29;;;;;;;9.10;7.70;;;;;;100657.05;;;;107178;1274;65069;-30
2022/04/15 07:27:56;;;;;;;8.90;7.10;;;;;;100658.71;;;;107027;1277;64876;-28
2022/04/15 07:30:24;;;;;;;9.80;6.90;;;;;;100658.77;;;;107117;1274;64763;-36
2022/04/15 07:32:54;;;;;;;10.00;7.80;;;;;;100661.67;;;;107176;1278;66470;-26
2022/04/15 07:35:24;;;;;;;8.60;7.20;;;;;;100660.33;;;;107098;1275;64811;-27
2022/04/15 07:37:51;;;;;;;9.40;7.50;;;;;;100655.52;;;;106996;1278;64748;-26
2022/04/15 07:40:19;;;;;;;9.00;6.90;;;;;;100648.80;;;;107061;1277;64706;-30
2022/04/15 07:42:46;;;;;;;8.50;6.90;;;;;;100644.38;;;;106943;1281;64786;-26
2022/04/15 07:45:14;;;;;;;9.30;7.50;;;;;;100644.69;;;;106973;1277;65412;-26
2022/04/15 07:47:42;;;;;;;8.90;6.90;;;;;;100643.21;;;;107065;1278;64837;-26
2022/04/15 07:50:10;;;;;;;7.60;6.60;;;;;;100642.17;;;;107112;1278;65158;-30
2022/04/15 07:52:37;;;;;;;7.80;6.30;;;;;;100643.09;;;;107090;1277;64771;-31
2022/04/15 07:55:05;;;;;;;9.00;6.30;;;;;;100641.77;;;;107150;1274;64765;-27
2022/04/15 07:57:34;;;;;;;8.10;6.60;;;;;;100644.12;;;;107039;1275;66455;-27
2022/04/15 08:00:01;;;;;;;9.20;6.60;;;;;;100645.41;;;;107112;1277;64674;-27
2022/04/15 08:02:29;;;;;;;11.70;7.50;;;;;;100648.03;;;;107133;1274;64896;-29
2022/04/15 08:04:59;;;;;;;9.00;6.70;;;;;;100648.52;;;;107095;1275;64753;-29
2022/04/15 08:07:26;;;;;;;9.70;6.50;;;;;;100647.52;;;;107054;1277;64895;-28
2022/04/15 08:09:53;;;;;;;9.20;6.90;;;;;;100649.20;;;;107115;1274;64885;-27
2022/04/15 08:12:20;;;;;;;8.10;6.50;;;;;;100650.33;;;;107078;1278;64953;-27
2022/04/15 08:14:51;;;;;;;8.10;6.30;;;;;;100650.36;;;;107098;1274;63547;-35
2022/04/15 08:17:19;;;;;;;8.70;6.60;;;;;;100647.88;;;;107046;1275;64733;-26
2022/04/15 08:19:46;;;;;;;7.50;6.10;;;;;;100650.41;;;;107043;1278;65537;-30
2022/04/15 08:22:17;;;;;;;7.40;5.90;;;;;;100653.51;;;;107062;1277;67665;-28
2022/04/15 08:24:45;;;;;;;10.20;6.40;;;;;;100658.08;;;;107065;1278;64882;-31
2022/04/15 08:27:12;;;;;;;8.20;6.20;;;;;;100660.20;;;;107017;1278;64896;-27
2022/04/15 08:29:39;;;;;;;9.10;6.50;;;;;;100665.30;;;;107065;1278;64811;-27
2022/04/15 08:32:10;;;;;;;9.20;5.90;;;;;;100665.54;;;;107059;1277;64834;-26
2022/04/15 08:34:39;;;;;;;7.90;6.10;;;;;;100663.19;;;;107070;1277;65232;-29
2022/04/15 08:37:06;;;;;;;8.40;5.90;;;;;;100663.34;;;;107082;1277;64862;-32
2022/04/15 08:39:33;;;;;;;7.70;5.70;;;;;;100667.19;;;;107050;1276;64780;-31
2022/04/15 08:42:07;;;;;;;7.40;6.10;;;;;;100666.23;;;;107055;1277;64734;-32
2022/04/15 08:44:35;;;;;;;7.10;5.30;;;;;;100664.75;;;;106952;1279;64605;-27
2022/04/15 08:47:03;;;;;;;7.50;6.10;;;;;;100666.58;;;;107059;1277;66509;-26
2022/04/15 08:49:32;;;;;;;8.20;6.20;;;;;;100671.38;;;;107037;1278;64841;-26
2022/04/15 08:52:00;;;;;;;7.70;5.90;;;;;;100672.64;;;;107012;1277;64883;-26
2022/04/15 08:54:28;;;;;;;8.50;6.70;;;;;;100671.69;;;;107130;1277;64002;-28
2022/04/15 08:56:55;;;;;;;7.70;6.20;;;;;;100675.84;;;;107109;1277;64866;-28
2022/04/15 08:59:23;;;;;;;7.90;6.20;;;;;;100677.48;;;;107044;1277;65926;-35
2022/04/15 09:01:50;;;;;;;8.00;6.10;;;;;;100676.38;;;;107101;1277;64849;-33
2022/04/15 09:04:19;;;;;;;8.40;6.50;;;;;;100676.40;;;;107093;1278;64824;-29
2022/04/15 09:06:54;;;;;;;7.90;6.30;;;;;;100674.44;;;;107127;1277;64819;-28
2022/04/15 09:09:29;;;;;;;7.80;6.30;;;;;;100679.77;;;;107107;1278;64897;-33
2022/04/15 09:11:59;;;;;;;9.80;6.40;;;;;;100677.27;;;;107136;1277;67456;-33
2022/04/15 09:14:27;;;;;;;7.70;6.30;;;;;;100681.77;;;;107139;1277;66456;-38
2022/04/15 09:16:54;;;;;;;8.70;6.10;;;;;;100681.31;;;;107009;1276;64788;-30
2022/04/15 09:19:22;;;;;;;6.60;5.60;;;;;;100680.71;;;;107102;1277;64754;-31
2022/04/15 09:21:57;;;;;;;8.00;6.20;;;;;;100677.47;;;;107083;1277;64766;-31
2022/04/15 09:24:32;;;;;;;6.70;5.60;;;;;;100674.00;;;;107126;1277;65930;-29
2022/04/15 09:27:06;;;;;;;7.00;5.10;;;;;;100674.45;;;;106986;1278;64784;-27
2022/04/15 09:29:39;;;;;;;8.00;6.00;;;;;;100677.95;;;;106918;1276;64625;-26
2022/04/15 09:32:14;;;;;;;10.80;5.90;;;;;;100680.66;;;;107022;1277;64884;-26
2022/04/15 09:35:05;;;;;;;7.20;6.00;;;;;;100675.70;;;;107065;1277;62200;-26
2022/04/15 09:37:42;;;;;;;7.20;6.00;;;;;;100677.54;;;;107070;1277;66444;-26
2022/04/15 09:40:15;;;;;;;8.20;6.20;;;;;;100673.50;;;;107077;1277;64773;-29
2022/04/15 09:42:45;;;;;;;8.10;6.00;;;;;;100672.55;;;;107018;1277;64835;-31
2022/04/15 09:45:17;;;;;;;8.00;5.80;;;;;;100676.27;;;;107086;1276;64893;-29
2022/04/15 09:47:52;;;;;;;7.20;5.70;;;;;;100678.84;;;;107159;1276;64853;-24
2022/04/15 09:50:26;;;;;;;7.10;5.50;;;;;;100674.64;;;;107057;1277;67713;-30
2022/04/15 09:53:14;;;;;;;8.00;5.50;;;;;;100673.66;;;;107083;1276;64827;-31
2022/04/15 09:55:46;;;;;;;6.60;5.20;;;;;;100671.08;;;;107145;1276;64740;-30
2022/04/15 09:58:19;;;;;;;6.60;5.30;;;;;;100674.79;;;;107119;1276;64883;-41
2022/04/15 10:00:51;;;;;;;6.60;5.40;;;;;;100673.24;;;;107076;1276;64838;-29
2022/04/15 10:03:22;;;;;;;6.30;4.90;;;;;;100674.55;;;;107065;1276;65908;-25
2022/04/15 10:05:51;;;;;;;6.80;5.30;;;;;;100672.63;;;;107022;1277;64978;-26
2022/04/15 10:08:24;;;;;;;6.60;4.90;;;;;;100675.99;;;;107075;1276;64766;-26
2022/04/15 10:10:53;;;;;;;6.30;5.00;;;;;;100679.73;;;;106997;1278;64809;-30
2022/04/15 10:13:22;;;;;;;7.30;5.50;;;;;;100685.16;;;;107115;1277;64839;-29
2022/04/15 10:15:50;;;;;;;6.20;4.70;;;;;;100686.10;;;;107069;1277;66416;-24
2022/04/15 10:18:18;;;;;;;6.70;5.30;;;;;;100689.34;;;;107067;1277;64719;-28
2022/04/15 10:20:45;;;;;;;7.30;5.40;;;;;;100692.79;;;;107141;1274;64827;-31
2022/04/15 10:23:14;;;;;;;6.70;4.90;;;;;;100693.34;;;;107121;1274;64713;-32
2022/04/15 10:25:48;;;;;;;7.40;5.40;;;;;;100697.32;;;;107171;1274;64865;-27
2022/04/15 10:28:45;;;;;;;6.60;5.20;;;;;;100695.77;;;;107137;1277;64744;-27
2022/04/15 10:31:16;;;;;;;6.80;5.00;;;;;;100693.07;;;;107025;1277;64980;-30
2022/04/15 10:33:49;;;;;;;8.00;6.20;;;;;;100692.32;;;;107168;1274;64799;-27
2022/04/15 10:36:32;;;;;;;7.20;5.30;;;;;;100693.26;;;;107136;1274;64968;-25
2022/04/15 10:39:03;;;;;;;7.60;5.40;;;;;;100687.90;;;;107073;1274;64769;-26
2022/04/15 10:41:55;;;;;;;7.80;5.80;;;;;;100687.35;;;;107151;1274;67372;-27
2022/04/15 10:44:35;;;;;;;6.60;5.40;;;;;;100680.71;;;;107048;1274;65445;-32
2022/04/15 10:47:24;;;;;;;7.30;5.40;;;;;;100681.84;;;;107111;1274;64737;-26
2022/04/15 10:50:03;;;;;;;7.50;5.40;;;;;;100681.72;;;;107109;1274;64891;-31
2022/04/15 10:52:34;;;;;;;6.50;5.00;;;;;;100679.96;;;;107120;1275;64876;-31
2022/04/15 10:55:05;;;;;;;6.70;5.20;;;;;;100679.98;;;;107129;1274;65893;-27
2022/04/15 10:57:40;;;;;;;7.30;5.50;;;;;;100677.68;;;;107127;1275;64783;-27
2022/04/15 11:03:23;;;;;;;8.60;5.90;;;;;;100670.66;;;;107072;1277;64806;-26
2022/04/15 11:05:51;;;;;;;8.60;5.90;;;;;;100668.25;;;;107085;1275;64897;-32
2022/04/15 11:08:23;;;;;;;8.10;5.90;;;;;;100663.84;;;;107128;1277;66475;-31
2022/04/15 11:10:57;;;;;;;9.10;6.40;;;;;;100662.92;;;;107147;1274;64725;-25
2022/04/15 11:13:40;;;;;;;7.00;5.20;;;;;;100663.58;;;;107126;1275;64745;-32
2022/04/15 11:16:10;;;;;;;7.40;5.50;;;;;;100659.92;;;;107115;1274;64737;-27
2022/04/15 11:18:43;;;;;;;7.90;5.80;;;;;;100655.63;;;;107128;1274;64773;-27
2022/04/15 11:21:21;;;;;;;8.00;5.60;;;;;;100659.69;;;;107140;1276;67639;-25
2022/04/15 11:23:53;;;;;;;6.60;5.30;;;;;;100657.20;;;;107141;1274;64789;-30
2022/04/15 11:26:26;;;;;;;7.60;6.00;;;;;;100658.29;;;;107114;1275;64879;-27
2022/04/15 11:28:57;;;;;;;7.10;5.60;;;;;;100658.42;;;;107070;1276;64857;-26
2022/04/15 11:31:36;;;;;;;10.50;7.10;;;;;;100662.33;;;;107165;1274;64731;-33
2022/04/15 11:34:07;;;;;;;7.90;6.00;;;;;;100653.17;;;;107128;1274;67924;-24
2022/04/15 11:36:38;;;;;;;7.20;5.70;;;;;;100652.04;;;;107012;1278;64873;-27
2022/04/15 11:39:08;;;;;;;7.10;5.50;;;;;;100654.09;;;;107117;1274;64864;-26
2022/04/15 11:41:42;;;;;;;6.50;5.20;;;;;;100652.72;;;;107090;1277;64784;-29
2022/04/15 11:44:10;;;;;;;6.90;5.70;;;;;;100653.52;;;;107084;1275;64901;-28
2022/04/15 11:46:49;;;;;;;8.30;5.60;;;;;;100652.55;;;;107045;1277;66225;-33
2022/04/15 11:49:27;;;;;;;7.90;5.10;;;;;;100652.77;;;;107126;1274;65010;-30
2022/04/15 11:51:57;;;;;;;7.00;5.20;;;;;;100652.33;;;;107047;1275;64806;-31
2022/04/15 11:54:32;;;;;;;7.20;5.60;;;;;;100651.95;;;;107103;1275;64859;-31
2022/04/15 11:57:03;;;;;;;7.60;5.80;;;;;;100650.83;;;;107080;1274;64382;-25
2022/04/15 11:59:47;;;;;;;7.20;5.30;;;;;;100647.96;;;;107114;1276;67210;-28
2022/04/15 12:02:17;;;;;;;7.70;5.50;;;;;;100646.84;;;;107013;1276;64647;-27
2022/04/15 12:04:53;;;;;;;7.10;5.70;;;;;;100643.84;;;;107123;1274;65059;-30
2022/04/15 12:07:23;;;;;;;6.60;5.30;;;;;;100636.39;;;;107045;1274;64830;-28
2022/04/15 12:09:52;;;;;;;7.60;5.40;;;;;;100632.21;;;;107055;1277;64777;-34
2022/04/15 12:12:23;;;;;;;6.80;5.20;;;;;;100631.59;;;;107140;1274;66301;-30
2022/04/15 12:14:51;;;;;;;7.30;5.00;;;;;;100630.28;;;;106732;1275;396052;-30
2022/04/15 12:17:19;;;;;;;6.70;5.20;;;;;;100628.22;;;;107147;1274;64778;-31
2022/04/15 12:19:48;;;;;;;6.50;5.10;;;;;;100625.62;;;;106983;1277;64841;-26
2022/04/15 12:22:19;;;;;;;6.50;5.10;;;;;;100623.77;;;;107070;1276;65854;-26
2022/04/15 12:24:47;;;;;;;6.90;5.10;;;;;;100616.56;;;;107153;1274;66092;-27
2022/04/15 12:27:18;;;;;;;6.70;4.50;;;;;;100617.73;;;;106994;1276;64863;-26
2022/04/15 12:29:48;;;;;;;7.00;5.10;;;;;;100622.35;;;;106924;1276;64718;-26
2022/04/15 12:32:34;;;;;;;6.90;4.80;;;;;;100624.08;;;;107415;1276;64848;-26
2022/04/15 12:35:12;;;;;;;6.20;4.80;;;;;;100619.71;;;;108708;1276;62510;-31
2022/04/15 12:37:47;;;;;;;6.00;4.40;;;;;;100617.79;;;;108660;1276;67034;-32
2022/04/15 12:40:14;;;;;;;6.70;5.00;;;;;;100611.13;;;;108514;1276;62708;-30
2022/04/15 12:42:44;;;;;;;6.40;4.60;;;;;;100613.65;;;;108827;1276;62648;-29
2022/04/15 12:45:21;;;;;;;5.80;4.30;;;;;;100616.82;;;;108692;1276;62493;-33
2022/04/15 12:48:07;;;;;;;6.40;4.70;;;;;;100618.38;;;;107029;1276;64787;-31
2022/04/15 12:50:36;;;;;;;6.20;4.60;;;;;;100618.31;;;;107085;1276;67757;-29
2022/04/15 12:53:18;;;;;;;6.70;5.40;;;;;;100617.39;;;;107069;1276;64872;-32
2022/04/15 12:55:50;;;;;;;6.40;5.00;;;;;;100615.80;;;;107059;1276;64778;-30